Time;durP1;ratioP1;P1;durP2;ratioP2;P2;SDS_P1;SDS_P2;PMS_P1;PMS_P2;Temp;Humidity;BMP_temperature;BMP_pressure;BME280_temperature;BME280_humidity;BME280_pressure;Samples;Min_cycle;Max_cycle;Signal;HPM_P1;HPM_P2
2023/06/16 00:02:07;;;;;;;6.53;4.72;;;;;;;19.18;100.00;98067.19;5158293;27;20107;-57
2023/06/16 00:04:33;;;;;;;5.03;3.92;;;;;;;19.21;100.00;98088.50;5158698;27;20050;-54
2023/06/16 00:06:59;;;;;;;9.93;4.93;;;;;;;19.20;100.00;98067.53;5158033;27;20063;-53
2023/06/16 00:09:26;;;;;;;6.82;4.47;;;;;;;19.32;100.00;98090.91;5158684;27;20043;-52
2023/06/16 00:11:52;;;;;;;7.47;4.80;;;;;;;19.13;100.00;97962.22;5158042;27;20042;-58
2023/06/16 00:14:18;;;;;;;8.82;5.30;;;;;;;19.19;100.00;98013.19;5158061;27;20103;-54
2023/06/16 00:16:44;;;;;;;7.72;4.80;;;;;;;19.16;100.00;97999.41;5158250;27;20047;-52
2023/06/16 00:19:10;;;;;;;5.13;4.30;;;;;;;19.24;100.00;98050.72;5158050;27;20137;-57
2023/06/16 00:21:41;;;;;;;7.38;4.15;;;;;;;19.21;100.00;98105.19;5157983;27;20061;-55
2023/06/16 00:24:07;;;;;;;5.60;3.90;;;;;;;19.06;100.00;98065.25;5158210;27;20079;-52
2023/06/16 00:26:34;;;;;;;8.80;4.47;;;;;;;19.23;100.00;98193.66;5158261;27;20046;-56
2023/06/16 00:29:00;;;;;;;9.18;4.57;;;;;;;19.28;100.00;98221.66;5158149;27;20369;-55
2023/06/16 00:31:26;;;;;;;5.90;4.45;;;;;;;19.20;100.00;98239.78;5158403;27;20043;-52
2023/06/16 00:33:52;;;;;;;6.90;5.15;;;;;;;19.30;100.00;98139.84;5158124;27;20047;-51
2023/06/16 00:36:18;;;;;;;7.78;4.50;;;;;;;19.10;100.00;98051.22;5158348;27;20043;-55
2023/06/16 00:38:44;;;;;;;7.55;4.50;;;;;;;19.07;100.00;98136.22;5157995;27;20134;-59
2023/06/16 00:41:10;;;;;;;8.98;4.50;;;;;;;19.18;100.00;98094.19;5157905;27;20047;-54
2023/06/16 00:43:36;;;;;;;5.93;4.57;;;;;;;18.94;100.00;98077.16;5157790;27;20055;-55
2023/06/16 00:46:02;;;;;;;9.20;4.65;;;;;;;19.00;100.00;98172.56;5157643;27;20412;-54
2023/06/16 00:48:28;;;;;;;7.00;4.47;;;;;;;19.13;100.00;98120.56;5157967;27;20174;-52
2023/06/16 00:50:55;;;;;;;6.93;4.60;;;;;;;19.12;100.00;98132.09;5157857;27;20058;-56
2023/06/16 00:53:21;;;;;;;6.60;5.82;;;;;;;19.05;100.00;98197.78;5157926;27;20046;-53
2023/06/16 00:55:47;;;;;;;14.30;5.03;;;;;;;19.22;100.00;98306.00;5157570;27;20061;-50
2023/06/16 00:58:13;;;;;;;9.95;4.97;;;;;;;19.23;100.00;98213.88;5157948;27;20054;-59
2023/06/16 01:00:39;;;;;;;11.00;4.28;;;;;;;19.05;100.00;98300.53;5157584;27;20088;-58
2023/06/16 01:03:08;;;;;;;4.57;3.97;;;;;;;19.23;100.00;98379.81;5157973;27;20047;-58
2023/06/16 01:05:35;;;;;;;7.28;5.10;;;;;;;19.26;100.00;98315.03;5157470;27;20444;-54
2023/06/16 01:08:12;;;;;;;6.93;3.85;;;;;;;19.08;100.00;98214.78;5157801;27;20265;-51
2023/06/16 01:10:47;;;;;;;8.68;4.68;;;;;;;19.03;100.00;98147.47;5157892;27;20054;-50
2023/06/16 01:13:30;;;;;;;11.50;4.57;;;;;;;18.93;100.00;98245.00;5157404;27;20180;-51
2023/06/16 01:15:59;;;;;;;9.65;4.43;;;;;;;19.06;100.00;98184.69;5157594;27;20046;-54
2023/06/16 01:18:27;;;;;;;6.97;4.80;;;;;;;19.09;100.00;98171.88;5157422;27;20050;-58
2023/06/16 01:20:57;;;;;;;9.45;4.88;;;;;;;19.04;100.00;98170.44;5157612;27;20046;-52
2023/06/16 01:23:33;;;;;;;7.53;4.78;;;;;;;18.99;100.00;98252.34;5157288;27;20093;-54
2023/06/16 01:26:01;;;;;;;8.38;4.72;;;;;;;19.12;100.00;98205.09;5157666;27;20055;-54
2023/06/16 01:28:31;;;;;;;6.80;4.13;;;;;;;19.04;100.00;98204.56;5157391;27;20158;-55
2023/06/16 01:30:58;;;;;;;10.77;4.75;;;;;;;19.07;100.00;98244.56;5157347;27;20145;-57
2023/06/16 01:33:27;;;;;;;9.10;4.60;;;;;;;19.01;100.00;98246.34;5157948;27;20050;-52
2023/06/16 01:35:53;;;;;;;10.48;4.60;;;;;;;19.12;100.00;98248.78;5160638;27;20243;-51
2023/06/16 01:38:21;;;;;;;5.85;4.80;;;;;;;19.08;100.00;98232.22;5160927;27;20043;-55
2023/06/16 01:40:48;;;;;;;6.63;4.07;;;;;;;19.05;100.00;98231.09;5160700;27;20335;-58
2023/06/16 01:43:16;;;;;;;10.63;4.68;;;;;;;19.00;100.00;98242.78;5160774;27;20046;-55
2023/06/16 01:45:42;;;;;;;8.82;4.80;;;;;;;19.02;100.00;98254.22;5160464;27;20078;-52
2023/06/16 01:48:08;;;;;;;10.30;4.72;;;;;;;18.99;100.00;98266.22;5160823;27;20051;-54
2023/06/16 01:50:35;;;;;;;10.18;4.32;;;;;;;18.94;100.00;98419.53;5160340;27;20043;-52
2023/06/16 01:53:01;;;;;;;6.82;4.15;;;;;;;19.11;100.00;98380.56;5160762;27;20135;-54
2023/06/16 01:55:27;;;;;;;7.15;4.13;;;;;;;19.15;100.00;98378.47;5160336;27;20498;-54
2023/06/16 01:57:53;;;;;;;9.63;4.55;;;;;;;19.04;100.00;98429.56;5160459;27;20137;-56
2023/06/16 02:00:28;;;;;;;12.45;4.40;;;;;;;19.21;100.00;98455.28;5160497;27;20061;-55
2023/06/16 02:03:00;;;;;;;8.15;4.97;;;;;;;19.21;100.00;98460.84;5160201;27;20050;-59
2023/06/16 02:05:26;;;;;;;5.85;4.25;;;;;;;19.24;100.00;98504.41;5160081;27;20050;-57
2023/06/16 02:07:55;;;;;;;6.97;4.63;;;;;;;19.21;100.00;98532.31;5160111;27;20408;-57
2023/06/16 02:10:22;;;;;;;8.23;4.45;;;;;;;19.21;100.00;98538.63;5160361;27;20051;-56
2023/06/16 02:12:49;;;;;;;7.35;4.35;;;;;;;19.33;100.00;98556.59;5160070;27;20487;-54
2023/06/16 02:15:17;;;;;;;8.55;4.47;;;;;;;19.31;100.00;98563.81;5160381;27;20051;-57
2023/06/16 02:17:45;;;;;;;6.25;4.15;;;;;;;19.18;100.00;98578.41;5159865;27;20349;-57
2023/06/16 02:20:11;;;;;;;8.07;4.97;;;;;;;19.36;100.00;98574.38;5160206;27;20058;-54
2023/06/16 02:22:37;;;;;;;6.43;4.25;;;;;;;19.20;100.00;98545.41;5160059;27;20138;-52
2023/06/16 02:25:04;;;;;;;5.95;3.88;;;;;;;19.38;100.00;98558.03;5159722;27;20054;-51
2023/06/16 02:27:30;;;;;;;7.72;4.40;;;;;;;19.33;100.00;98562.16;5160064;27;20327;-57
2023/06/16 02:29:56;;;;;;;8.52;4.60;;;;;;;19.49;100.00;98577.97;5160059;27;20077;-56
2023/06/16 02:32:22;;;;;;;6.63;3.72;;;;;;;19.44;100.00;98592.44;5160060;27;20074;-58
2023/06/16 02:34:52;;;;;;;8.70;4.80;;;;;;;19.16;100.00;98607.84;5159703;27;20464;-57
2023/06/16 02:37:19;;;;;;;8.63;4.53;;;;;;;19.24;100.00;98585.00;5159893;27;20051;-50
2023/06/16 02:39:45;;;;;;;13.80;4.85;;;;;;;19.49;100.00;98589.91;5159549;27;20107;-55
2023/06/16 02:42:12;;;;;;;5.25;4.03;;;;;;;19.47;100.00;98594.34;5159614;27;20058;-58
2023/06/16 02:44:38;;;;;;;6.45;4.40;;;;;;;19.42;100.00;98598.41;5159146;27;20062;-54
2023/06/16 02:47:04;;;;;;;5.43;4.32;;;;;;;19.53;100.00;98592.59;5159875;27;20089;-52
2023/06/16 02:49:31;;;;;;;8.38;4.63;;;;;;;19.54;100.00;98605.25;5159345;27;20057;-52
2023/06/16 02:51:58;;;;;;;8.70;4.13;;;;;;;19.65;100.00;98586.28;5159620;27;20050;-50
2023/06/16 02:54:24;;;;;;;5.43;4.00;;;;;;;19.66;100.00;98604.56;5159653;27;20054;-52
2023/06/16 02:56:50;;;;;;;7.40;4.22;;;;;;;19.92;100.00;98602.59;5159323;27;20180;-50
2023/06/16 02:59:16;;;;;;;7.43;4.32;;;;;;;19.62;100.00;98603.81;5159575;27;20054;-54
2023/06/16 03:01:41;;;;;;;7.35;4.43;;;;;;;20.07;100.00;98602.22;5159151;27;20058;-57
2023/06/16 03:04:08;;;;;;;6.80;4.30;;;;;;;19.94;100.00;98616.88;5159557;27;20138;-56
2023/06/16 03:06:34;;;;;;;6.30;4.75;;;;;;;20.12;100.00;98638.59;5159129;27;20061;-56
2023/06/16 03:09:03;;;;;;;5.63;4.38;;;;;;;20.23;100.00;98638.31;5159463;27;20058;-53
2023/06/16 03:11:29;;;;;;;5.63;4.20;;;;;;;20.31;100.00;98650.00;5159122;27;20046;-53
2023/06/16 03:13:55;;;;;;;7.60;4.65;;;;;;;20.40;100.00;98648.13;5159750;27;20054;-55
2023/06/16 03:16:21;;;;;;;8.10;4.72;;;;;;;20.32;100.00;98652.31;5158880;27;20072;-56
2023/06/16 03:18:47;;;;;;;7.90;3.83;;;;;;;20.38;100.00;98672.81;5159179;27;20042;-54
2023/06/16 03:21:13;;;;;;;6.43;3.78;;;;;;;20.83;100.00;98668.34;5159154;27;20065;-52
2023/06/16 03:23:39;;;;;;;7.85;4.30;;;;;;;20.83;100.00;98676.69;5159130;27;20137;-55
2023/06/16 03:26:05;;;;;;;6.22;3.80;;;;;;;21.43;100.00;98693.47;5159070;27;20439;-56
2023/06/16 03:28:31;;;;;;;7.30;3.90;;;;;;;21.65;100.00;98692.72;5159021;27;20365;-52
2023/06/16 03:30:58;;;;;;;9.13;4.22;;;;;;;21.85;100.00;98704.38;5159115;27;20055;-52
2023/06/16 03:33:23;;;;;;;10.25;4.20;;;;;;;21.92;100.00;98701.31;5158989;27;20411;-52
2023/06/16 03:35:49;;;;;;;5.93;4.28;;;;;;;22.03;100.00;98701.72;5158910;27;20062;-52
2023/06/16 03:38:15;;;;;;;6.50;3.95;;;;;;;21.75;100.00;98678.41;5158671;27;20118;-52
2023/06/16 03:40:41;;;;;;;9.02;3.95;;;;;;;22.19;100.00;98697.19;5158995;27;20050;-56
2023/06/16 03:43:08;;;;;;;7.60;5.15;;;;;;;22.46;100.00;98693.78;5158541;27;20050;-56
2023/06/16 03:45:34;;;;;;;5.38;3.85;;;;;;;22.58;95.39;98718.06;5158946;27;20043;-57
2023/06/16 03:48:00;;;;;;;4.70;3.78;;;;;;;22.48;92.07;98722.06;5158688;27;20078;-55
2023/06/16 03:50:27;;;;;;;6.03;4.03;;;;;;;22.69;96.30;98714.88;5158735;27;20404;-55
2023/06/16 03:52:52;;;;;;;5.55;4.80;;;;;;;22.32;96.78;98714.66;5158879;27;20054;-55
2023/06/16 03:55:19;;;;;;;7.47;4.10;;;;;;;22.80;94.84;98715.25;5158313;27;20047;-52
2023/06/16 03:57:45;;;;;;;6.10;4.10;;;;;;;23.36;91.82;98721.81;5157869;27;20055;-52
2023/06/16 04:00:12;;;;;;;4.88;3.75;;;;;;;23.77;85.93;98731.72;5158252;27;20134;-52
2023/06/16 04:02:38;;;;;;;5.40;4.90;;;;;;;23.61;82.06;98738.34;5158637;27;20181;-51
2023/06/16 04:05:06;;;;;;;8.77;5.28;;;;;;;24.17;79.71;98737.16;5158215;27;20054;-52
2023/06/16 04:07:31;;;;;;;6.85;4.10;;;;;;;24.18;79.10;98741.53;5158588;27;20051;-51
2023/06/16 04:09:57;;;;;;;5.88;4.18;;;;;;;23.69;80.15;98736.06;5158119;27;20078;-51
2023/06/16 04:12:23;;;;;;;6.55;5.05;;;;;;;23.91;82.46;98733.91;5158621;27;20057;-55
2023/06/16 04:14:49;;;;;;;6.00;5.32;;;;;;;24.74;79.15;98738.66;5157927;27;20050;-58
2023/06/16 04:17:16;;;;;;;10.20;5.10;;;;;;;26.19;74.25;98738.31;5158415;27;20173;-58
2023/06/16 04:19:42;;;;;;;7.80;5.50;;;;;;;26.60;71.76;98743.44;5158117;27;20061;-58
2023/06/16 04:22:08;;;;;;;8.40;4.90;;;;;;;27.05;66.85;98747.72;5157862;27;20050;-58
2023/06/16 04:24:33;;;;;;;8.30;5.03;;;;;;;26.91;70.07;98734.47;5158037;27;20049;-56
2023/06/16 04:27:01;;;;;;;8.15;4.70;;;;;;;26.73;65.75;98753.13;5158044;27;20165;-55
2023/06/16 04:29:27;;;;;;;6.40;4.70;;;;;;;27.18;64.05;98751.03;5158270;27;20073;-58
2023/06/16 04:31:59;;;;;;;6.68;4.72;;;;;;;28.11;64.01;98754.09;5157761;27;20412;-57
2023/06/16 04:34:26;;;;;;;5.78;4.50;;;;;;;28.74;61.09;98756.28;5158091;27;20058;-55
2023/06/16 04:36:53;;;;;;;7.07;4.57;;;;;;;29.48;59.90;98754.78;5157599;27;20460;-56
2023/06/16 04:39:19;;;;;;;7.13;4.55;;;;;;;29.41;60.54;98756.03;5158187;27;20111;-55
2023/06/16 04:41:45;;;;;;;4.55;4.15;;;;;;;28.85;59.17;98749.97;5157586;27;20430;-52
2023/06/16 04:44:11;;;;;;;11.77;3.95;;;;;;;27.75;58.83;98749.00;5157986;27;20137;-52
2023/06/16 04:46:37;;;;;;;4.88;4.40;;;;;;;27.92;60.01;98744.38;5157521;27;20149;-55
2023/06/16 04:49:04;;;;;;;5.78;4.05;;;;;;;26.94;61.31;98736.31;5157598;27;20055;-54
2023/06/16 04:51:30;;;;;;;5.95;3.90;;;;;;;27.11;64.10;98733.75;5157579;27;20063;-56
2023/06/16 04:53:57;;;;;;;4.60;4.10;;;;;;;26.47;64.74;98740.88;5157527;27;20051;-57
2023/06/16 04:56:22;;;;;;;6.93;4.47;;;;;;;26.28;66.42;98735.41;5157420;27;20043;-51
2023/06/16 04:58:48;;;;;;;6.13;4.10;;;;;;;26.71;65.36;98730.31;5157524;27;20224;-51
2023/06/16 05:01:14;;;;;;;7.60;4.72;;;;;;;26.03;66.36;98741.59;5157540;27;20043;-49
2023/06/16 05:03:40;;;;;;;6.82;4.40;;;;;;;26.60;66.56;98738.56;5157126;27;20331;-55
2023/06/16 05:06:06;;;;;;;8.20;4.53;;;;;;;26.28;65.28;98745.88;5157632;27;20061;-57
2023/06/16 05:08:33;;;;;;;6.32;4.65;;;;;;;26.27;65.07;98739.50;5159566;27;20042;-59
2023/06/16 05:11:01;;;;;;;6.53;4.80;;;;;;;27.64;62.53;98749.63;5161273;27;20050;-53
2023/06/16 05:13:27;;;;;;;7.85;5.03;;;;;;;26.15;64.60;98748.94;5160678;27;20099;-55
2023/06/16 05:15:53;;;;;;;6.93;5.20;;;;;;;27.02;62.92;98747.94;5160834;27;20081;-52
2023/06/16 05:18:19;;;;;;;6.55;5.50;;;;;;;27.66;61.16;98756.34;5161039;27;20050;-54
2023/06/16 05:20:45;;;;;;;7.43;5.35;;;;;;;28.25;60.18;98754.50;5160954;27;20093;-52
2023/06/16 05:23:11;;;;;;;7.40;5.25;;;;;;;28.22;60.77;98747.03;5160849;27;20076;-58
2023/06/16 05:25:37;;;;;;;8.07;5.93;;;;;;;27.89;60.62;98751.00;5160747;27;20411;-58
2023/06/16 05:28:04;;;;;;;7.22;5.60;;;;;;;29.37;59.26;98755.50;5160956;27;20133;-57
2023/06/16 05:30:30;;;;;;;10.02;5.72;;;;;;;29.93;57.45;98763.53;5160486;27;20065;-58
2023/06/16 05:32:56;;;;;;;11.77;5.55;;;;;;;30.27;56.64;98761.63;5161125;27;20082;-54
2023/06/16 05:35:21;;;;;;;7.55;5.50;;;;;;;29.23;57.65;98765.69;5160398;27;20176;-52
2023/06/16 05:37:48;;;;;;;11.57;5.65;;;;;;;29.30;58.84;98753.16;5160767;27;20050;-52
2023/06/16 05:40:14;;;;;;;7.03;5.30;;;;;;;30.09;57.31;98750.72;5160287;27;20445;-54
2023/06/16 05:42:41;;;;;;;8.35;5.57;;;;;;;30.35;57.27;98761.88;5160713;27;20370;-59
2023/06/16 05:45:07;;;;;;;15.35;5.95;;;;;;;30.78;56.81;98756.06;5160544;27;20050;-56
2023/06/16 05:47:33;;;;;;;9.25;5.93;;;;;;;30.84;54.97;98756.84;5160112;27;20043;-59
2023/06/16 05:50:00;;;;;;;9.15;6.38;;;;;;;29.84;55.92;98760.91;5160254;27;20103;-60
2023/06/16 05:52:26;;;;;;;11.95;6.40;;;;;;;30.65;55.37;98765.78;5160237;27;20190;-52
2023/06/16 05:54:52;;;;;;;10.65;6.72;;;;;;;30.86;55.38;98757.88;5160522;27;20489;-60
2023/06/16 05:57:18;;;;;;;11.95;7.07;;;;;;;31.36;55.12;98747.81;5160026;27;20059;-59
2023/06/16 05:59:44;;;;;;;8.55;6.45;;;;;;;31.86;54.06;98753.31;5160333;27;20436;-54
2023/06/16 06:02:10;;;;;;;9.25;6.20;;;;;;;31.77;53.72;98750.78;5160255;27;20146;-58
2023/06/16 06:04:36;;;;;;;12.65;6.93;;;;;;;32.24;53.43;98747.25;5160589;27;20046;-52
2023/06/16 06:07:02;;;;;;;11.90;6.45;;;;;;;31.99;52.68;98755.63;5159899;27;20476;-51
2023/06/16 06:09:29;;;;;;;8.23;6.30;;;;;;;29.04;55.77;98750.41;5160189;27;20057;-56
2023/06/16 06:11:55;;;;;;;12.00;6.10;;;;;;;29.77;56.61;98751.63;5159647;27;20050;-58
2023/06/16 06:14:21;;;;;;;9.05;5.50;;;;;;;29.99;55.99;98747.34;5159573;27;20472;-60
2023/06/16 06:16:49;;;;;;;10.02;6.32;;;;;;;31.31;55.43;98743.66;5159432;27;20053;-50
2023/06/16 06:19:15;;;;;;;8.57;5.55;;;;;;;31.57;54.09;98753.94;5159186;27;20051;-56
2023/06/16 06:21:41;;;;;;;9.13;5.25;;;;;;;30.09;55.73;98748.69;5159531;27;20051;-54
2023/06/16 06:24:07;;;;;;;8.27;5.50;;;;;;;29.80;56.37;98746.25;5159507;27;20077;-53
2023/06/16 06:26:33;;;;;;;7.55;5.20;;;;;;;29.21;57.41;98747.69;5159585;27;20081;-56
2023/06/16 06:28:59;;;;;;;8.32;5.38;;;;;;;29.91;58.51;98749.13;5159202;27;20053;-57
2023/06/16 06:31:25;;;;;;;8.63;5.10;;;;;;;30.27;56.32;98749.53;5159762;27;20046;-57
2023/06/16 06:33:51;;;;;;;5.85;4.63;;;;;;;30.32;56.47;98749.53;5159492;27;20061;-57
2023/06/16 06:36:21;;;;;;;18.70;5.18;;;;;;;30.18;57.30;98742.03;5159683;27;20078;-54
2023/06/16 06:38:47;;;;;;;9.55;5.07;;;;;;;29.10;57.49;98748.41;5159346;27;20141;-57
2023/06/16 06:41:13;;;;;;;7.25;4.55;;;;;;;27.74;61.09;98744.66;5159609;27;20134;-51
2023/06/16 06:43:39;;;;;;;6.03;4.53;;;;;;;28.43;60.91;98736.53;5159352;27;20122;-54
2023/06/16 06:46:05;;;;;;;8.13;4.57;;;;;;;28.97;59.51;98739.56;5159192;27;20054;-57
2023/06/16 06:48:31;;;;;;;9.18;5.18;;;;;;;29.30;57.91;98747.50;5159509;27;20058;-58
2023/06/16 06:50:58;;;;;;;7.85;4.82;;;;;;;28.96;58.89;98746.47;5159136;27;20058;-57
2023/06/16 06:53:23;;;;;;;6.45;4.63;;;;;;;30.11;58.04;98743.28;5158563;27;20133;-59
2023/06/16 06:55:49;;;;;;;5.50;4.60;;;;;;;29.93;57.07;98741.69;5158560;27;20455;-59
2023/06/16 06:58:15;;;;;;;7.18;4.40;;;;;;;31.26;54.60;98740.84;5158893;27;20141;-58
2023/06/16 07:00:41;;;;;;;7.47;4.95;;;;;;;31.79;54.42;98748.19;5158788;27;20050;-55
2023/06/16 07:03:07;;;;;;;6.68;5.00;;;;;;;31.37;53.93;98747.28;5159247;27;20057;-53
2023/06/16 07:05:34;;;;;;;7.72;4.32;;;;;;;32.34;53.06;98743.56;5158921;27;20061;-55
2023/06/16 07:08:00;;;;;;;5.43;4.55;;;;;;;32.15;52.35;98739.03;5159364;27;20051;-56
2023/06/16 07:10:26;;;;;;;10.40;5.25;;;;;;;32.74;52.39;98746.91;5158651;27;20142;-59
2023/06/16 07:12:52;;;;;;;5.82;4.47;;;;;;;30.73;53.96;98743.44;5158360;27;20046;-53
2023/06/16 07:15:18;;;;;;;7.13;4.53;;;;;;;32.03;52.29;98747.59;5158771;27;20203;-54
2023/06/16 07:17:44;;;;;;;6.55;4.28;;;;;;;31.16;53.47;98743.94;5158487;27;20093;-57
2023/06/16 07:20:10;;;;;;;8.35;4.50;;;;;;;31.15;54.29;98755.78;5158686;27;20372;-57
2023/06/16 07:22:36;;;;;;;7.90;4.80;;;;;;;30.71;55.18;98743.94;5158416;27;20134;-54
2023/06/16 07:25:03;;;;;;;5.95;4.10;;;;;;;30.09;55.85;98750.72;5158588;27;20301;-50
2023/06/16 07:27:29;;;;;;;7.13;4.70;;;;;;;29.73;56.71;98742.63;5158436;27;20138;-57
2023/06/16 07:29:55;;;;;;;4.68;4.05;;;;;;;29.70;56.16;98745.72;5158792;27;20054;-53
2023/06/16 07:32:21;;;;;;;13.90;4.38;;;;;;;30.09;54.74;98745.88;5157350;27;20057;-52
2023/06/16 07:34:47;;;;;;;5.95;3.85;;;;;;;29.80;55.71;98746.25;5158716;27;20078;-50
2023/06/16 07:37:14;;;;;;;12.75;4.50;;;;;;;28.94;56.42;98741.31;5158079;27;20042;-54
2023/06/16 07:39:39;;;;;;;5.38;4.32;;;;;;;29.08;57.54;98739.66;5158849;27;20123;-51
2023/06/16 07:42:07;;;;;;;12.73;4.43;;;;;;;29.69;55.57;98736.47;5158523;27;20355;-53
2023/06/16 07:44:32;;;;;;;9.30;4.80;;;;;;;29.61;56.18;98734.63;5158473;27;20434;-55
2023/06/16 07:46:58;;;;;;;8.45;4.20;;;;;;;29.02;56.98;98730.38;5158312;27;20142;-58
2023/06/16 07:49:24;;;;;;;6.90;3.80;;;;;;;29.39;54.87;98744.50;5158379;27;20139;-52
2023/06/16 07:51:50;;;;;;;9.88;3.95;;;;;;;29.65;55.46;98735.13;5158446;27;20047;-51
2023/06/16 07:54:16;;;;;;;5.78;4.10;;;;;;;29.73;53.76;98737.00;5158529;27;20434;-60
2023/06/16 07:56:42;;;;;;;8.48;4.50;;;;;;;30.20;53.61;98739.50;5158188;27;20124;-61
2023/06/16 07:59:09;;;;;;;9.32;4.05;;;;;;;29.75;54.47;98737.25;5158023;27;20145;-59
2023/06/16 08:01:35;;;;;;;5.47;3.90;;;;;;;30.74;53.97;98741.38;5158408;27;20078;-60
2023/06/16 08:04:01;;;;;;;4.45;3.97;;;;;;;31.82;50.50;98735.03;5158007;27;20472;-56
2023/06/16 08:06:27;;;;;;;5.50;3.95;;;;;;;31.43;50.31;98732.34;5158395;27;20062;-57
2023/06/16 08:08:53;;;;;;;10.55;4.25;;;;;;;32.01;50.96;98736.00;5157805;27;20046;-59
2023/06/16 08:11:19;;;;;;;5.55;4.15;;;;;;;32.39;50.07;98735.53;5158074;27;20506;-62
2023/06/16 08:13:45;;;;;;;5.15;3.72;;;;;;;31.84;50.90;98741.72;5157974;27;20046;-61
2023/06/16 08:16:11;;;;;;;5.30;4.05;;;;;;;31.78;50.33;98735.31;5157918;27;20093;-58
2023/06/16 08:18:38;;;;;;;8.75;4.07;;;;;;;32.20;51.01;98718.38;5158167;27;20327;-60
2023/06/16 08:21:06;;;;;;;9.70;4.32;;;;;;;32.17;50.26;98717.38;5157915;27;20050;-56
2023/06/16 08:23:32;;;;;;;8.00;3.75;;;;;;;33.49;49.09;98720.97;5157634;27;20050;-58
2023/06/16 08:25:59;;;;;;;4.43;3.70;;;;;;;32.46;48.29;98723.66;5157953;27;20057;-56
2023/06/16 08:28:25;;;;;;;7.95;4.53;;;;;;;31.37;49.44;98721.78;5157878;27;20047;-60
2023/06/16 08:30:51;;;;;;;5.88;3.75;;;;;;;31.08;50.14;98719.50;5157710;27;20058;-61
2023/06/16 08:33:19;;;;;;;5.15;4.32;;;;;;;32.77;48.98;98726.00;5158055;27;20436;-54
2023/06/16 08:35:45;;;;;;;8.52;4.60;;;;;;;34.06;47.51;98723.91;5157638;27;20062;-61
2023/06/16 08:38:11;;;;;;;7.50;4.00;;;;;;;32.22;48.87;98722.22;5158030;27;20082;-60
2023/06/16 08:40:38;;;;;;;12.73;4.05;;;;;;;31.80;49.41;98726.28;5157527;27;20078;-53
2023/06/16 08:43:06;;;;;;;6.10;4.30;;;;;;;31.43;49.69;98721.78;5159209;27;20054;-57
2023/06/16 08:45:34;;;;;;;6.57;3.80;;;;;;;32.13;49.39;98714.03;5161490;27;20053;-57
2023/06/16 08:48:00;;;;;;;5.80;3.83;;;;;;;32.78;48.64;98716.16;5161306;27;20059;-59
2023/06/16 08:50:27;;;;;;;5.45;4.00;;;;;;;31.16;50.66;98717.72;5161406;27;20410;-58
2023/06/16 08:52:57;;;;;;;7.15;3.63;;;;;;;30.83;50.99;98716.44;5160960;27;20060;-59
2023/06/16 08:55:26;;;;;;;8.15;3.80;;;;;;;30.20;52.53;98720.47;5161035;27;20058;-53
2023/06/16 08:57:53;;;;;;;7.55;4.22;;;;;;;30.70;51.90;98725.41;5160225;27;20063;-57
2023/06/16 09:00:19;;;;;;;7.15;4.15;;;;;;;29.99;53.25;98725.53;5160808;27;20487;-57
2023/06/16 09:02:48;;;;;;;5.00;3.88;;;;;;;30.62;52.46;98721.56;5160377;27;20052;-52
2023/06/16 09:05:15;;;;;;;5.68;3.90;;;;;;;30.71;52.59;98714.88;5161161;27;20046;-56
2023/06/16 09:07:42;;;;;;;11.95;4.13;;;;;;;30.68;52.66;98716.66;5160815;27;20051;-55
2023/06/16 09:10:08;;;;;;;6.38;3.80;;;;;;;30.19;52.75;98720.97;5161108;27;20057;-55
2023/06/16 09:12:35;;;;;;;7.07;4.00;;;;;;;30.39;52.57;98714.31;5161078;27;20297;-54
2023/06/16 09:15:01;;;;;;;7.82;4.20;;;;;;;29.68;52.97;98715.13;5160704;27;20398;-52
2023/06/16 09:17:29;;;;;;;5.35;4.20;;;;;;;30.33;53.61;98716.41;5160674;27;20407;-58
2023/06/16 09:19:56;;;;;;;7.22;3.95;;;;;;;30.74;52.75;98711.00;5160758;27;20050;-60
2023/06/16 09:22:26;;;;;;;7.10;3.72;;;;;;;30.04;53.33;98715.50;5160837;27;20138;-60
2023/06/16 09:24:57;;;;;;;7.57;3.97;;;;;;;29.74;53.91;98710.28;5160369;27;20476;-53
2023/06/16 09:27:25;;;;;;;6.90;4.07;;;;;;;29.78;54.23;98705.16;5161049;27;20047;-59
2023/06/16 09:29:56;;;;;;;8.43;4.10;;;;;;;29.66;53.50;98706.41;5160366;27;20092;-60
2023/06/16 09:32:22;;;;;;;13.95;4.15;;;;;;;29.89;53.59;98703.63;5160534;27;20133;-60
2023/06/16 09:34:48;;;;;;;7.72;4.18;;;;;;;29.62;54.03;98703.03;5160556;27;20082;-58
2023/06/16 09:37:19;;;;;;;8.88;4.03;;;;;;;30.29;53.72;98705.34;5160149;27;20107;-54
2023/06/16 09:39:45;;;;;;;8.88;4.43;;;;;;;29.30;54.52;98705.16;5160348;27;20052;-56
2023/06/16 09:42:12;;;;;;;5.35;3.92;;;;;;;30.22;54.09;98702.97;5160145;27;20054;-53
2023/06/16 09:44:39;;;;;;;4.60;3.83;;;;;;;30.47;53.11;98707.66;5160532;27;20094;-54
2023/06/16 09:47:05;;;;;;;7.40;4.03;;;;;;;29.69;53.96;98707.41;5160311;27;20164;-56
2023/06/16 09:49:31;;;;;;;6.53;3.97;;;;;;;30.11;53.17;98709.38;5160690;27;20042;-59
2023/06/16 09:51:59;;;;;;;5.30;3.70;;;;;;;29.52;55.12;98698.84;5160208;27;20043;-59
2023/06/16 09:54:26;;;;;;;6.50;4.00;;;;;;;29.78;55.21;98701.56;5159347;27;20042;-57
2023/06/16 09:56:55;;;;;;;9.32;4.00;;;;;;;29.80;54.58;98707.47;5159741;27;20377;-57
2023/06/16 09:59:23;;;;;;;4.93;3.75;;;;;;;30.68;52.60;98711.00;5160005;27;20317;-54
2023/06/16 10:01:53;;;;;;;10.80;3.83;;;;;;;30.83;51.79;98707.19;5159839;27;20365;-58
2023/06/16 10:04:21;;;;;;;6.43;4.05;;;;;;;30.78;52.72;98711.56;5160178;27;20065;-52
2023/06/16 10:06:53;;;;;;;7.32;4.03;;;;;;;30.88;51.67;98703.56;5159863;27;20106;-56
2023/06/16 10:09:27;;;;;;;9.83;3.77;;;;;;;30.89;51.78;98700.25;5159719;27;20051;-60
2023/06/16 10:11:54;;;;;;;6.38;4.00;;;;;;;31.43;51.74;98701.97;5160039;27;20050;-49
2023/06/16 10:14:25;;;;;;;5.03;4.03;;;;;;;31.22;51.91;98703.53;5159562;27;20368;-51
2023/06/16 10:16:53;;;;;;;5.65;4.05;;;;;;;30.81;52.26;98702.03;5159958;27;20352;-51
2023/06/16 10:19:22;;;;;;;4.88;4.20;;;;;;;29.80;53.31;98695.41;5159856;27;20062;-52
2023/06/16 10:21:50;;;;;;;7.75;4.28;;;;;;;30.29;53.14;98696.06;5159866;27;20137;-56
2023/06/16 10:24:16;;;;;;;7.68;4.00;;;;;;;30.01;53.85;98689.03;5159711;27;20063;-51
2023/06/16 10:26:43;;;;;;;5.95;4.30;;;;;;;29.19;54.85;98694.59;5159603;27;20439;-50
2023/06/16 10:29:16;;;;;;;7.90;3.92;;;;;;;30.01;53.49;98696.75;5159734;27;20391;-53
2023/06/16 10:31:43;;;;;;;7.78;3.83;;;;;;;29.85;53.77;98689.75;5159184;27;20415;-51
2023/06/16 10:34:17;;;;;;;7.72;4.20;;;;;;;29.78;53.98;98687.44;5159634;27;20065;-59
2023/06/16 10:36:43;;;;;;;6.25;4.10;;;;;;;29.29;53.89;98683.84;5159197;27;20079;-56
2023/06/16 10:39:12;;;;;;;5.65;3.80;;;;;;;29.97;53.06;98682.88;5159490;27;20146;-58
2023/06/16 10:41:49;;;;;;;7.20;4.35;;;;;;;30.45;53.59;98681.94;5159346;27;20113;-61
2023/06/16 10:44:26;;;;;;;10.38;4.55;;;;;;;30.74;53.74;98670.63;5159425;27;20137;-59
2023/06/16 10:47:27;;;;;;;7.97;4.15;;;;;;;31.02;52.44;98664.94;5159282;27;20133;-56
2023/06/16 10:49:55;;;;;;;7.03;4.03;;;;;;;30.84;52.49;98654.97;5159268;27;20046;-58
2023/06/16 10:52:31;;;;;;;6.88;4.00;;;;;;;31.23;51.86;98659.78;5159393;27;20060;-55
2023/06/16 10:54:58;;;;;;;7.47;3.83;;;;;;;31.19;52.30;98657.22;5159183;27;20202;-57
2023/06/16 10:57:25;;;;;;;8.80;3.83;;;;;;;30.63;51.83;98657.28;5159507;27;20042;-57
2023/06/16 10:59:53;;;;;;;5.03;3.90;;;;;;;30.94;51.47;98645.66;5159020;27;20383;-59
2023/06/16 11:02:22;;;;;;;6.55;4.07;;;;;;;30.69;52.13;98649.53;5159368;27;20144;-61
2023/06/16 11:05:09;;;;;;;4.60;4.15;;;;;;;30.18;52.34;98637.41;5159197;27;20082;-59
2023/06/16 11:07:37;;;;;;;5.97;3.90;;;;;;;30.21;52.44;98639.25;5158934;27;20058;-49
2023/06/16 11:10:03;;;;;;;15.65;4.88;;;;;;;29.31;54.21;98634.06;5158704;27;20046;-56
2023/06/16 11:12:29;;;;;;;7.68;4.05;;;;;;;29.27;53.79;98636.38;5158344;27;20370;-55
2023/06/16 11:14:56;;;;;;;5.60;3.90;;;;;;;29.16;54.22;98629.88;5158956;27;20051;-52
2023/06/16 11:17:23;;;;;;;6.13;4.10;;;;;;;28.84;55.30;98627.88;5158571;27;20137;-56
2023/06/16 11:19:51;;;;;;;12.20;4.25;;;;;;;29.21;54.82;98621.44;5159079;27;20043;-59
2023/06/16 11:22:27;;;;;;;7.68;4.22;;;;;;;28.23;55.72;98625.34;5158697;27;20106;-58
2023/06/16 11:24:52;;;;;;;5.90;4.20;;;;;;;28.75;55.22;98625.25;5158833;27;20046;-58
2023/06/16 11:27:20;;;;;;;9.90;4.10;;;;;;;28.77;55.21;98622.72;5158851;27;20093;-57
2023/06/16 11:29:47;;;;;;;4.32;3.80;;;;;;;29.02;55.01;98621.13;5158273;27;20215;-55